createdAt,value
2023-03-05T00:02:26.049Z,94.50
2023-03-05T00:04:53.797Z,94.40
2023-03-05T00:07:21.520Z,94.20
2023-03-05T00:09:49.201Z,94.10
2023-03-05T00:12:17.084Z,94.10
2023-03-05T00:14:44.872Z,94.40
2023-03-05T00:17:13.984Z,94.50
2023-03-05T00:19:41.759Z,94.50
2023-03-05T00:22:09.488Z,94.80
2023-03-05T00:24:37.330Z,94.60
2023-03-05T00:27:05.311Z,95.00
2023-03-05T00:29:33.059Z,94.70
2023-03-05T00:32:00.814Z,94.80
2023-03-05T00:34:29.990Z,95.30
2023-03-05T00:36:57.907Z,94.80
2023-03-05T00:39:25.685Z,94.40
2023-03-05T00:41:53.894Z,94.40
2023-03-05T00:44:22.084Z,94.50
2023-03-05T00:46:50.255Z,94.60
2023-03-05T00:49:18.047Z,94.90
2023-03-05T00:51:47.220Z,95.30
2023-03-05T00:54:14.955Z,95.00
2023-03-05T00:56:42.992Z,94.70
2023-03-05T00:59:10.855Z,95.20
2023-03-05T01:01:38.643Z,95.60
2023-03-05T01:04:06.628Z,94.60
2023-03-05T01:06:34.381Z,94.70
2023-03-05T01:09:03.508Z,94.70
2023-03-05T01:11:31.906Z,94.70
2023-03-05T01:13:59.745Z,94.60
2023-03-05T01:16:27.514Z,94.60
2023-03-05T01:18:55.600Z,94.80
2023-03-05T01:21:23.458Z,95.40
2023-03-05T01:23:51.249Z,95.20
2023-03-05T01:26:20.447Z,95.10
2023-03-05T01:28:48.656Z,95.40
2023-03-05T01:31:16.459Z,95.50
2023-03-05T01:33:44.237Z,95.30
2023-03-05T01:36:15.907Z,95.60
2023-03-05T01:38:44.348Z,96.40
2023-03-05T01:41:13.708Z,95.80
2023-03-05T01:43:43.757Z,96.80
2023-03-05T01:46:27.025Z,97.00
2023-03-05T01:48:59.592Z,96.40
2023-03-05T01:51:31.429Z,96.80
2023-03-05T01:54:01.656Z,97.50
2023-03-05T01:56:30.854Z,97.60
2023-03-05T01:59:03.433Z,97.80
2023-03-05T02:01:34.309Z,97.20
2023-03-05T02:04:02.709Z,97.90
2023-03-05T02:06:30.929Z,97.50
2023-03-05T02:08:58.925Z,98.00
2023-03-05T02:11:26.707Z,98.50
2023-03-05T02:13:54.461Z,98.60
2023-03-05T02:16:23.593Z,98.80
2023-03-05T02:18:51.526Z,99.10
2023-03-05T02:21:30.421Z,98.90
2023-03-05T02:23:58.241Z,99.50
2023-03-05T02:26:25.937Z,99.30
2023-03-05T02:28:57.943Z,99.20
2023-03-05T02:31:27.055Z,99.80
2023-03-05T02:33:56.797Z,99.10
2023-03-05T02:36:24.887Z,98.80
2023-03-05T02:38:56.897Z,98.70
2023-03-05T02:41:25.126Z,98.60
2023-03-05T02:43:52.971Z,98.70
2023-03-05T02:46:20.899Z,99.00
2023-03-05T02:48:49.909Z,99.00
2023-03-05T02:51:17.988Z,98.30
2023-03-05T02:53:45.820Z,98.50
2023-03-05T02:56:14.897Z,98.20
2023-03-05T02:58:42.950Z,98.30
2023-03-05T03:01:11.172Z,98.60
2023-03-05T03:03:39.615Z,98.80
2023-03-05T03:06:08.322Z,98.90
2023-03-05T03:08:36.055Z,98.30
2023-03-05T03:11:08.420Z,98.10
2023-03-05T03:13:37.534Z,98.40
2023-03-05T03:16:06.932Z,97.80
2023-03-05T03:18:34.935Z,97.30
2023-03-05T03:21:02.826Z,97.30
2023-03-05T03:23:31.230Z,97.60
2023-03-05T03:25:59.006Z,97.60
2023-03-05T03:28:26.994Z,97.60
2023-03-05T03:30:56.143Z,97.40
2023-03-05T03:33:23.909Z,97.40
2023-03-05T03:35:51.671Z,97.60
2023-03-05T03:38:19.756Z,97.40
2023-03-05T03:40:47.567Z,97.50
2023-03-05T03:43:15.357Z,97.40
2023-03-05T03:45:44.051Z,97.70
2023-03-05T03:48:13.673Z,97.20
2023-03-05T03:50:41.880Z,97.70
2023-03-05T03:53:14.071Z,97.00
2023-03-05T03:55:43.856Z,97.40
2023-03-05T03:58:11.848Z,96.80
2023-03-05T04:00:40.835Z,97.30
2023-03-05T04:03:08.646Z,96.70
2023-03-05T04:05:37.773Z,97.40
2023-03-05T04:08:08.413Z,97.00
2023-03-05T04:10:36.127Z,97.00
2023-03-05T04:13:03.886Z,97.10
2023-03-05T04:15:31.695Z,97.10
2023-03-05T04:17:59.412Z,97.00
2023-03-05T04:20:27.271Z,97.10
2023-03-05T04:22:56.365Z,97.20
2023-03-05T04:25:24.222Z,97.50
2023-03-05T04:27:52.234Z,97.40
2023-03-05T04:30:20.333Z,97.60
2023-03-05T04:32:48.058Z,98.40
2023-03-05T04:35:15.779Z,98.00
2023-03-05T04:37:43.595Z,98.00
2023-03-05T04:40:13.744Z,98.40
2023-03-05T04:42:41.592Z,98.70
2023-03-05T04:45:10.649Z,99.20
2023-03-05T04:47:38.763Z,99.50
2023-03-05T04:50:08.422Z,99.90
2023-03-05T04:52:38.790Z,99.90
2023-03-05T04:55:07.366Z,99.90
2023-03-05T04:57:36.833Z,99.90
2023-03-05T05:00:06.801Z,99.90
2023-03-05T05:02:34.638Z,99.90
2023-03-05T05:05:02.435Z,99.90
2023-03-05T05:07:30.201Z,99.90
2023-03-05T05:09:57.916Z,99.90
2023-03-05T05:12:25.747Z,99.90
2023-03-05T05:14:54.812Z,99.90
2023-03-05T05:17:22.505Z,99.90
2023-03-05T05:19:50.273Z,99.90
2023-03-05T05:22:18.121Z,99.90
2023-03-05T05:24:45.903Z,99.90
2023-03-05T05:27:13.702Z,99.90
2023-03-05T05:29:41.637Z,99.90
2023-03-05T05:32:10.737Z,99.90
2023-03-05T05:34:38.549Z,99.90
2023-03-05T05:37:06.362Z,99.90
2023-03-05T05:39:34.084Z,99.90
2023-03-05T05:42:01.918Z,99.90
2023-03-05T05:44:29.678Z,99.90
2023-03-05T05:46:57.393Z,99.90
2023-03-05T05:49:26.659Z,99.90
2023-03-05T05:51:54.385Z,99.90
2023-03-05T05:54:22.117Z,99.90
2023-03-05T05:56:49.892Z,99.90
2023-03-05T05:59:17.640Z,99.90
2023-03-05T06:01:45.594Z,99.90
2023-03-05T06:04:13.564Z,99.90
2023-03-05T06:06:42.803Z,99.90
2023-03-05T06:09:10.575Z,99.90
2023-03-05T06:11:39.205Z,99.90
2023-03-05T06:14:07.563Z,99.90
2023-03-05T06:16:36.192Z,99.90
2023-03-05T06:19:04.871Z,99.90
2023-03-05T06:21:33.519Z,99.90
2023-03-05T06:24:02.615Z,99.90
2023-03-05T06:26:30.376Z,99.90
2023-03-05T06:28:59.223Z,99.90
2023-03-05T06:31:28.538Z,99.90
2023-03-05T06:33:58.033Z,99.90
2023-03-05T06:36:26.463Z,99.90
2023-03-05T06:38:55.227Z,99.90
2023-03-05T06:41:25.912Z,99.90
2023-03-05T06:43:53.781Z,99.90
2023-03-05T06:46:23.377Z,99.90
2023-03-05T06:48:51.948Z,99.90
2023-03-05T06:51:22.105Z,99.90
2023-03-05T06:53:50.556Z,99.30
2023-03-05T06:56:19.040Z,99.70
2023-03-05T06:58:50.529Z,99.50
2023-03-05T07:01:18.952Z,99.30
2023-03-05T07:03:50.511Z,98.90
2023-03-05T07:06:18.630Z,99.30
2023-03-05T07:08:46.692Z,99.00
2023-03-05T07:11:17.595Z,99.30
2023-03-05T07:13:47.609Z,98.70
2023-03-05T07:16:19.268Z,98.50
2023-03-05T07:18:47.472Z,98.40
2023-03-05T07:21:18.559Z,98.40
2023-03-05T07:23:46.383Z,98.80
2023-03-05T07:26:14.452Z,98.10
2023-03-05T07:28:42.776Z,98.20
2023-03-05T07:31:14.967Z,98.10
2023-03-05T07:33:44.054Z,98.50
2023-03-05T07:36:12.684Z,98.30
2023-03-05T07:38:40.924Z,97.60
2023-03-05T07:41:10.769Z,97.80
2023-03-05T07:43:39.191Z,98.60
2023-03-05T07:46:08.591Z,97.60
2023-03-05T07:48:36.870Z,97.70
2023-03-05T07:51:08.294Z,97.50
2023-03-05T07:53:36.516Z,97.00
2023-03-05T07:56:04.481Z,96.80
2023-03-05T07:58:32.238Z,96.70
2023-03-05T08:00:59.986Z,96.20
2023-03-05T08:03:27.841Z,95.80
2023-03-05T08:05:55.641Z,96.00
2023-03-05T08:08:24.763Z,95.70
2023-03-05T08:10:52.477Z,95.90
2023-03-05T08:13:20.224Z,95.80
2023-03-05T08:15:48.019Z,94.80
2023-03-05T08:18:18.799Z,94.50
2023-03-05T08:20:46.530Z,93.80
2023-03-05T08:23:14.309Z,94.00
2023-03-05T08:25:43.445Z,93.90
2023-03-05T08:28:11.194Z,93.60
2023-03-05T08:30:41.827Z,93.20
2023-03-05T08:33:09.611Z,92.90
2023-03-05T08:35:37.375Z,92.60
2023-03-05T08:38:05.756Z,92.30
2023-03-05T08:40:33.806Z,91.90
2023-03-05T08:43:04.848Z,91.70
2023-03-05T08:45:32.623Z,91.90
2023-03-05T08:48:00.429Z,91.80
2023-03-05T08:50:28.202Z,91.30
2023-03-05T08:52:56.894Z,91.30
2023-03-05T08:55:24.688Z,91.00
2023-03-05T08:57:52.483Z,90.90
2023-03-05T09:00:23.954Z,90.90
2023-03-05T09:02:53.888Z,90.70
2023-03-05T09:05:23.724Z,90.10
2023-03-05T09:07:53.525Z,90.20
2023-03-05T09:10:23.504Z,90.10
2023-03-05T09:12:53.289Z,90.20
2023-03-05T09:15:24.552Z,90.10
2023-03-05T09:17:54.339Z,90.00
2023-03-05T09:20:24.251Z,88.90
2023-03-05T09:22:54.023Z,89.00
2023-03-05T09:25:24.299Z,89.10
2023-03-05T09:27:53.978Z,88.10
2023-03-05T09:30:25.557Z,88.20
2023-03-05T09:32:55.269Z,87.40
2023-03-05T09:35:25.076Z,86.80
2023-03-05T09:37:54.811Z,85.90
2023-03-05T09:40:26.473Z,85.50
2023-03-05T09:43:07.694Z,84.80
2023-03-05T09:45:44.074Z,84.60
2023-03-05T09:48:20.813Z,83.80
2023-03-05T09:50:52.935Z,83.40
2023-03-05T09:53:37.453Z,83.50
2023-03-05T09:56:11.756Z,83.50
2023-03-05T09:58:41.884Z,80.80
2023-03-05T10:01:14.297Z,79.40
2023-03-05T10:03:53.278Z,77.10
2023-03-05T10:06:24.887Z,76.70
2023-03-05T10:08:56.577Z,75.80
2023-03-05T10:11:44.356Z,76.20
2023-03-05T10:14:20.523Z,75.40
2023-03-05T10:16:54.092Z,74.40
2023-03-05T10:19:38.682Z,73.90
2023-03-05T10:22:15.760Z,73.90
2023-03-05T10:24:57.306Z,74.70
2023-03-05T10:27:40.742Z,74.90
2023-03-05T10:30:28.857Z,73.60
2023-03-05T10:33:10.640Z,74.80
2023-03-05T10:36:06.005Z,74.70
2023-03-05T10:39:09.948Z,73.80
2023-03-05T10:41:53.040Z,74.20
2023-03-05T10:44:27.319Z,75.00
2023-03-05T10:46:59.586Z,76.10
2023-03-05T10:49:33.191Z,75.00
2023-03-05T10:52:08.737Z,75.30
2023-03-05T10:54:41.691Z,74.70
2023-03-05T10:57:18.323Z,74.00
2023-03-05T10:59:50.006Z,73.20
2023-03-05T11:02:19.178Z,73.00
2023-03-05T11:04:49.082Z,73.90
2023-03-05T11:07:38.497Z,72.90
2023-03-05T11:10:16.650Z,73.90
2023-03-05T11:12:44.919Z,73.50
2023-03-05T11:15:29.098Z,73.10
2023-03-05T11:18:16.548Z,74.00
2023-03-05T11:20:45.954Z,72.00
2023-03-05T11:23:15.914Z,72.60
2023-03-05T11:26:19.377Z,72.10
2023-03-05T11:28:59.182Z,72.40
2023-03-05T11:31:28.647Z,72.20
2023-03-05T11:33:59.684Z,72.20
2023-03-05T11:36:30.814Z,71.80
2023-03-05T11:39:02.024Z,70.70
2023-03-05T11:41:35.577Z,70.10
2023-03-05T11:44:06.966Z,68.50
2023-03-05T11:46:41.938Z,67.60
2023-03-05T11:49:14.319Z,67.20
2023-03-05T11:51:48.704Z,66.70
2023-03-05T11:54:22.135Z,65.50
2023-03-05T11:56:52.616Z,65.40
2023-03-05T11:59:24.724Z,64.80
2023-03-05T12:01:55.211Z,64.80
2023-03-05T12:04:24.436Z,65.60
2023-03-05T12:06:57.275Z,65.70
2023-03-05T12:09:34.554Z,64.90
2023-03-05T12:12:13.106Z,65.20
2023-03-05T12:14:46.475Z,66.10
2023-03-05T12:17:22.083Z,66.40
2023-03-05T12:19:56.583Z,66.00
2023-03-05T12:22:32.553Z,65.70
2023-03-05T12:25:25.363Z,65.40
2023-03-05T12:27:53.388Z,65.50
2023-03-05T12:30:56.132Z,65.60
2023-03-05T12:33:38.600Z,67.00
2023-03-05T12:36:34.917Z,65.90
2023-03-05T12:39:41.782Z,65.50
2023-03-05T12:42:43.241Z,65.80
2023-03-05T12:45:31.023Z,65.60
2023-03-05T12:48:42.336Z,65.60
2023-03-05T12:51:14.772Z,65.80
2023-03-05T12:53:42.553Z,66.10
2023-03-05T12:56:20.794Z,65.20
2023-03-05T12:58:52.119Z,66.20
2023-03-05T13:01:35.022Z,65.40
2023-03-05T13:04:10.601Z,65.80
2023-03-05T13:06:40.113Z,66.00
2023-03-05T13:09:16.820Z,65.30
2023-03-05T13:11:49.539Z,64.80
2023-03-05T13:14:31.594Z,64.80
2023-03-05T13:16:59.643Z,64.80
2023-03-05T13:19:27.553Z,65.20
2023-03-05T13:22:03.619Z,67.00
2023-03-05T13:24:31.446Z,67.30
2023-03-05T13:27:00.571Z,67.30
2023-03-05T13:29:30.618Z,67.80
2023-03-05T13:32:00.864Z,67.90
2023-03-05T13:34:44.485Z,68.50
2023-03-05T13:37:18.913Z,70.30
2023-03-05T13:39:50.930Z,68.90
2023-03-05T13:42:21.945Z,68.80
2023-03-05T13:44:55.526Z,68.30
2023-03-05T13:47:25.118Z,67.40
2023-03-05T13:49:57.589Z,68.20
2023-03-05T13:52:26.243Z,68.20
2023-03-05T13:54:54.056Z,68.20
2023-03-05T13:57:39.822Z,67.80
2023-03-05T14:00:25.591Z,67.80
2023-03-05T14:02:54.048Z,67.20
2023-03-05T14:05:22.698Z,65.60
2023-03-05T14:07:52.496Z,65.50
2023-03-05T14:10:30.705Z,64.80
2023-03-05T14:13:01.120Z,65.20
2023-03-05T14:15:30.722Z,65.20
2023-03-05T14:18:16.861Z,65.10
2023-03-05T14:21:00.753Z,66.30
2023-03-05T14:23:36.465Z,65.60
2023-03-05T14:26:29.743Z,65.90
2023-03-05T14:29:01.679Z,65.70
2023-03-05T14:31:31.122Z,65.90
2023-03-05T14:34:05.146Z,66.30
2023-03-05T14:36:34.348Z,67.00
2023-03-05T14:39:02.453Z,67.30
2023-03-05T14:41:39.827Z,67.30
2023-03-05T14:44:14.094Z,68.00
2023-03-05T14:46:42.100Z,67.70
2023-03-05T14:49:09.831Z,67.70
2023-03-05T14:51:41.325Z,68.60
2023-03-05T14:54:19.769Z,69.20
2023-03-05T14:56:47.984Z,69.40
2023-03-05T14:59:17.173Z,69.50
2023-03-05T15:01:44.934Z,70.40
2023-03-05T15:04:15.362Z,70.60
2023-03-05T15:06:46.533Z,70.80
2023-03-05T15:09:17.684Z,70.70
2023-03-05T15:11:45.931Z,70.60
2023-03-05T15:14:13.697Z,70.60
2023-03-05T15:16:45.184Z,71.10
2023-03-05T15:19:13.686Z,70.00
2023-03-05T15:21:41.660Z,70.40
2023-03-05T15:24:11.277Z,70.80
2023-03-05T15:26:39.396Z,70.30
2023-03-05T15:29:07.176Z,69.70
2023-03-05T15:31:38.336Z,69.40
2023-03-05T15:34:07.822Z,70.60
2023-03-05T15:36:35.680Z,70.30
2023-03-05T15:39:03.493Z,69.70
2023-03-05T15:41:31.205Z,69.30
2023-03-05T15:43:58.992Z,68.80
2023-03-05T15:46:26.840Z,68.80
2023-03-05T15:48:54.612Z,69.20
2023-03-05T15:51:23.823Z,69.20
2023-03-05T15:53:51.670Z,69.10
2023-03-05T15:56:20.270Z,68.60
2023-03-05T15:58:49.800Z,68.40
2023-03-05T16:01:19.226Z,69.10
2023-03-05T16:03:47.221Z,68.90
2023-03-05T16:06:16.406Z,69.40
2023-03-05T16:08:45.643Z,67.80
2023-03-05T16:11:14.505Z,68.80
2023-03-05T16:13:43.296Z,68.70
2023-03-05T16:16:11.668Z,67.70
2023-03-05T16:18:44.544Z,68.70
2023-03-05T16:21:13.798Z,67.10
2023-03-05T16:23:41.912Z,68.00
2023-03-05T16:26:11.933Z,67.90
2023-03-05T16:28:39.703Z,67.30
2023-03-05T16:31:07.520Z,67.50
2023-03-05T16:33:35.255Z,68.40
2023-03-05T16:36:22.592Z,69.70
2023-03-05T16:38:52.656Z,70.60
2023-03-05T16:41:24.372Z,70.90
2023-03-05T16:43:53.366Z,71.00
2023-03-05T16:46:21.783Z,71.90
2023-03-05T16:48:49.702Z,71.00
2023-03-05T16:51:19.272Z,69.60
2023-03-05T16:53:47.705Z,70.00
2023-03-05T16:56:16.190Z,70.30
2023-03-05T16:58:45.376Z,70.30
2023-03-05T17:01:15.548Z,70.50
2023-03-05T17:03:44.844Z,72.00
2023-03-05T17:06:14.667Z,72.10
2023-03-05T17:08:43.530Z,71.70
2023-03-05T17:11:12.540Z,71.90
2023-03-05T17:13:41.189Z,72.10
2023-03-05T17:16:12.462Z,72.90
2023-03-05T17:18:40.414Z,72.40
2023-03-05T17:21:09.003Z,72.60
2023-03-05T17:23:37.857Z,73.50
2023-03-05T17:26:06.040Z,74.10
2023-03-05T17:28:33.895Z,73.40
2023-03-05T17:31:01.877Z,73.30
2023-03-05T17:33:31.896Z,74.50
2023-03-05T17:35:59.964Z,73.50
2023-03-05T17:38:28.399Z,74.70
2023-03-05T17:40:56.584Z,73.70
2023-03-05T17:43:24.655Z,74.10
2023-03-05T17:45:52.665Z,74.00
2023-03-05T17:48:20.522Z,74.10
2023-03-05T17:50:49.572Z,75.10
2023-03-05T17:53:17.534Z,74.30
2023-03-05T17:55:45.402Z,73.80
2023-03-05T17:58:14.197Z,74.80
2023-03-05T18:00:41.995Z,73.90
2023-03-05T18:03:09.703Z,74.20
2023-03-05T18:05:37.937Z,74.10
2023-03-05T18:08:07.834Z,75.10
2023-03-05T18:10:35.531Z,75.10
2023-03-05T18:13:03.417Z,74.40
2023-03-05T18:15:31.253Z,74.60
2023-03-05T18:17:59.476Z,75.30
2023-03-05T18:20:30.092Z,75.90
2023-03-05T18:22:58.933Z,75.20
2023-03-05T18:25:31.268Z,75.30
2023-03-05T18:28:00.025Z,75.10
2023-03-05T18:30:29.003Z,75.60
2023-03-05T18:32:57.044Z,75.50
2023-03-05T18:35:25.045Z,75.60
2023-03-05T18:37:52.910Z,75.40
2023-03-05T18:40:23.226Z,74.80
2023-03-05T18:42:52.380Z,75.90
2023-03-05T18:45:21.946Z,75.50
2023-03-05T18:47:53.874Z,76.30
2023-03-05T18:50:23.173Z,75.10
2023-03-05T18:52:50.979Z,75.50
2023-03-05T18:55:20.881Z,75.10
2023-03-05T18:57:49.095Z,75.70
2023-03-05T19:00:21.271Z,75.60
2023-03-05T19:02:49.028Z,76.30
2023-03-05T19:05:17.510Z,76.50
2023-03-05T19:07:45.649Z,76.50
2023-03-05T19:10:14.498Z,76.80
2023-03-05T19:12:49.749Z,76.00
2023-03-05T19:15:19.436Z,76.50
2023-03-05T19:17:47.807Z,76.90
2023-03-05T19:20:16.077Z,76.30
2023-03-05T19:22:44.056Z,76.90
2023-03-05T19:25:12.492Z,76.70
2023-03-05T19:27:40.306Z,76.80
2023-03-05T19:30:09.524Z,76.30
2023-03-05T19:32:38.785Z,76.60
2023-03-05T19:35:07.609Z,76.80
2023-03-05T19:37:35.427Z,77.30
2023-03-05T19:40:04.000Z,77.00
2023-03-05T19:42:31.804Z,77.00
2023-03-05T19:45:00.235Z,76.80
2023-03-05T19:47:28.010Z,76.50
2023-03-05T19:49:57.092Z,76.30
2023-03-05T19:52:24.850Z,76.90
2023-03-05T19:54:52.613Z,76.90
2023-03-05T19:57:20.336Z,76.80
2023-03-05T19:59:48.111Z,76.80
2023-03-05T20:02:19.360Z,76.80
2023-03-05T20:04:47.256Z,76.80
2023-03-05T20:07:16.456Z,77.00
2023-03-05T20:09:44.340Z,77.40
2023-03-05T20:12:12.451Z,76.90
2023-03-05T20:14:40.240Z,76.90
2023-03-05T20:17:08.045Z,76.90
2023-03-05T20:19:36.277Z,78.10
2023-03-05T20:22:04.333Z,78.00
2023-03-05T20:24:33.621Z,77.30
2023-03-05T20:27:01.505Z,77.60
2023-03-05T20:29:29.237Z,77.40
2023-03-05T20:31:57.312Z,77.70
2023-03-05T20:34:26.904Z,79.00
2023-03-05T20:36:54.726Z,78.40
2023-03-05T20:39:22.429Z,78.60
2023-03-05T20:41:51.950Z,78.50
2023-03-05T20:44:19.665Z,78.70
2023-03-05T20:46:59.474Z,78.80
2023-03-05T20:49:27.272Z,79.30
2023-03-05T20:51:55.036Z,79.20
2023-03-05T20:54:23.950Z,79.80
2023-03-05T20:56:53.048Z,79.70
2023-03-05T20:59:23.158Z,79.90
2023-03-05T21:01:50.920Z,80.20
2023-03-05T21:04:18.665Z,79.70
2023-03-05T21:06:46.422Z,80.40
2023-03-05T21:09:14.228Z,79.90
2023-03-05T21:11:41.957Z,79.90
2023-03-05T21:14:11.002Z,79.90
2023-03-05T21:16:38.785Z,80.30
2023-03-05T21:19:06.511Z,80.50
2023-03-05T21:21:34.312Z,81.00
2023-03-05T21:24:02.043Z,81.10
2023-03-05T21:26:29.792Z,80.50
2023-03-05T21:28:57.620Z,80.70
2023-03-05T21:31:26.737Z,80.80
2023-03-05T21:33:55.590Z,80.30
2023-03-05T21:36:23.326Z,80.30
2023-03-05T21:38:51.207Z,80.70
2023-03-05T21:41:20.400Z,80.70
2023-03-05T21:43:48.440Z,80.60
2023-03-05T21:46:16.263Z,80.70
2023-03-05T21:48:45.416Z,80.60
2023-03-05T21:51:17.243Z,80.40
2023-03-05T21:53:45.045Z,81.70
2023-03-05T21:56:22.179Z,81.40
2023-03-05T21:58:51.021Z,82.30
2023-03-05T22:01:21.175Z,82.10
2023-03-05T22:03:50.697Z,82.00
2023-03-05T22:06:20.134Z,82.50
2023-03-05T22:08:48.295Z,82.40
2023-03-05T22:11:18.043Z,82.80
2023-03-05T22:13:46.045Z,82.80
2023-03-05T22:16:21.931Z,83.40
2023-03-05T22:18:51.396Z,83.80
2023-03-05T22:21:21.089Z,83.80
2023-03-05T22:23:49.732Z,83.20
2023-03-05T22:26:17.517Z,83.00
2023-03-05T22:28:45.454Z,83.10
2023-03-05T22:31:19.763Z,83.90
2023-03-05T22:33:47.529Z,84.30
2023-03-05T22:36:17.087Z,83.80
2023-03-05T22:38:45.343Z,83.70
2023-03-05T22:41:14.697Z,84.10
2023-03-05T22:43:42.633Z,84.20
2023-03-05T22:46:11.750Z,84.70
2023-03-05T22:48:39.546Z,84.80
2023-03-05T22:51:08.642Z,84.60
2023-03-05T22:53:38.012Z,85.70
2023-03-05T22:56:10.531Z,84.80
2023-03-05T22:58:38.348Z,85.70
2023-03-05T23:01:12.921Z,85.50
2023-03-05T23:03:41.443Z,85.70
2023-03-05T23:06:10.279Z,85.80
2023-03-05T23:08:39.501Z,86.20
2023-03-05T23:11:11.108Z,86.20
2023-03-05T23:13:39.081Z,88.00
2023-03-05T23:16:07.473Z,86.70
2023-03-05T23:18:35.289Z,88.40
2023-03-05T23:21:03.037Z,86.90
2023-03-05T23:23:30.771Z,87.60
2023-03-05T23:25:59.884Z,87.60
2023-03-05T23:28:27.722Z,87.70
2023-03-05T23:30:55.470Z,87.50
2023-03-05T23:33:24.374Z,87.50
2023-03-05T23:35:53.878Z,88.00
2023-03-05T23:38:21.793Z,88.90
2023-03-05T23:40:53.479Z,88.30
2023-03-05T23:43:25.367Z,88.60
2023-03-05T23:45:54.901Z,88.90
2023-03-05T23:48:23.805Z,88.80
2023-03-05T23:50:51.673Z,88.50
2023-03-05T23:53:22.298Z,89.30
2023-03-05T23:55:51.281Z,90.10
2023-03-05T23:58:20.523Z,89.60
